createdAt,value
2016-12-08T09:24:30.580Z,1022.43
2016-12-08T09:25:13.019Z,1022.3
2016-12-08T09:25:53.550Z,1022.45
2016-12-08T09:26:34.078Z,1022.35
2016-12-08T09:27:14.554Z,1022.37
2016-12-08T09:27:55.019Z,1022.4
2016-12-08T09:28:35.518Z,1022.4
2016-12-08T09:29:15.987Z,1022.43
2016-12-08T09:29:56.482Z,1022.45
2016-12-08T09:30:37.003Z,1022.41
2016-12-08T09:31:19.602Z,1022.37
2016-12-08T09:32:02.823Z,1022.46
2016-12-08T09:32:43.578Z,1022.42
2016-12-08T09:33:24.081Z,1022.52
2016-12-08T09:34:04.560Z,1022.43
2016-12-08T09:34:45.019Z,1022.41
2016-12-08T09:35:25.557Z,1022.44
2016-12-08T09:36:05.987Z,1022.48
2016-12-08T09:36:47.376Z,1022.47
2016-12-08T09:37:27.996Z,1022.51
2016-12-08T09:38:08.554Z,1022.42
2016-12-08T09:38:49.115Z,1022.44
2016-12-08T09:39:29.663Z,1022.41
2016-12-08T09:40:10.161Z,1022.51
2016-12-08T09:40:52.450Z,1022.43
2016-12-08T09:41:32.954Z,1022.53
2016-12-08T09:42:13.421Z,1022.49
2016-12-08T09:42:53.961Z,1022.49
2016-12-08T09:43:34.490Z,1022.48
2016-12-08T09:44:14.978Z,1022.48
2016-12-08T09:44:55.441Z,1022.47
2016-12-08T09:45:35.928Z,1022.47
2016-12-08T09:46:16.397Z,1022.45
2016-12-08T09:46:56.871Z,1022.38
2016-12-08T09:47:37.357Z,1022.32
2016-12-08T09:48:17.913Z,1022.37
2016-12-08T09:48:58.372Z,1022.4
2016-12-08T09:49:38.945Z,1022.42
2016-12-08T09:50:19.519Z,1022.23
2016-12-08T09:51:00.005Z,1022.33
2016-12-08T09:51:40.500Z,1022.38
2016-12-08T09:52:20.964Z,1022.31
2016-12-08T09:53:01.508Z,1022.29
2016-12-08T09:53:42.073Z,1022.31
2016-12-08T09:54:22.570Z,1022.46
2016-12-08T09:55:03.032Z,1022.34
2016-12-08T09:55:43.537Z,1022.37
2016-12-08T09:56:24.035Z,1022.25
2016-12-08T09:57:04.533Z,1022.33
2016-12-08T09:57:44.979Z,1022.38
2016-12-08T09:58:25.496Z,1022.28
2016-12-08T09:59:05.963Z,1022.37
2016-12-08T09:59:46.511Z,1022.33
2016-12-08T10:00:26.999Z,1022.31
2016-12-08T10:01:07.524Z,1022.33
2016-12-08T10:01:48.012Z,1022.34
2016-12-08T10:02:35.153Z,1022.25
2016-12-08T10:03:15.669Z,1022.2
2016-12-08T10:03:56.123Z,1022.2
2016-12-08T10:04:36.591Z,1022.21
2016-12-08T10:05:17.108Z,1022.08
2016-12-08T10:05:57.625Z,1022.25
2016-12-08T10:06:38.102Z,1022.08
2016-12-08T10:07:18.584Z,1022.13
2016-12-08T10:07:59.073Z,1022.08
2016-12-08T10:08:39.589Z,1022.11
2016-12-08T10:09:20.054Z,1022.23
2016-12-08T10:10:00.542Z,1022.08
2016-12-08T10:10:40.999Z,1022.1
2016-12-08T10:11:21.513Z,1022.22
2016-12-08T10:12:02.012Z,1022.1
2016-12-08T10:12:42.430Z,1022.15
2016-12-08T10:13:22.946Z,1022.2
2016-12-08T10:14:05.190Z,1022.16
2016-12-08T10:14:45.709Z,1022.22
2016-12-08T10:15:26.207Z,1022.13
2016-12-08T10:16:07.540Z,1022.25
2016-12-08T10:16:48.038Z,1022.04
2016-12-08T10:17:28.573Z,1021.99
2016-12-08T10:18:09.037Z,1022.11
2016-12-08T10:18:49.499Z,1022.02
2016-12-08T10:19:29.976Z,1021.95
2016-12-08T10:20:11.315Z,1022.18
2016-12-08T10:20:53.073Z,1021.99
2016-12-08T10:21:33.556Z,1021.81
2016-12-08T10:22:13.990Z,1021.76
2016-12-08T10:22:54.462Z,1021.65
2016-12-08T10:23:35.860Z,1021.72
2016-12-08T10:24:16.348Z,1021.73
2016-12-08T10:24:56.836Z,1021.68
2016-12-08T10:25:37.316Z,1021.71
2016-12-08T10:26:17.768Z,1021.73
2016-12-08T10:26:58.264Z,1021.78
2016-12-08T10:27:38.755Z,1021.6
2016-12-08T10:28:19.232Z,1021.78
2016-12-08T10:28:59.729Z,1021.73
2016-12-08T10:29:40.232Z,1021.75
2016-12-08T10:30:20.735Z,1021.84
2016-12-08T10:31:01.212Z,1021.83
2016-12-08T10:31:41.681Z,1021.82
2016-12-08T10:32:22.141Z,1021.85
2016-12-08T10:33:03.471Z,1021.88
2016-12-08T10:33:43.916Z,1021.7
2016-12-08T10:34:24.418Z,1022.02
2016-12-08T10:35:04.883Z,1021.86
2016-12-08T10:35:45.377Z,1021.87
2016-12-08T10:36:27.752Z,1021.82
2016-12-08T10:37:08.252Z,1021.89
2016-12-08T10:37:48.749Z,1021.9
2016-12-08T10:38:29.217Z,1021.85
2016-12-08T10:39:09.726Z,1021.83
2016-12-08T10:39:50.219Z,1021.81
2016-12-08T10:40:30.722Z,1021.88
2016-12-08T10:41:11.217Z,1021.81
2016-12-08T10:41:51.707Z,1021.76
2016-12-08T10:42:32.192Z,1022.07
2016-12-08T10:43:13.561Z,1021.77
2016-12-08T10:43:54.933Z,1021.75
2016-12-08T10:44:35.473Z,1021.79
2016-12-08T10:45:15.983Z,1021.64
2016-12-08T10:45:56.530Z,1021.74
2016-12-08T10:46:36.980Z,1021.76
2016-12-08T10:47:17.464Z,1021.67
2016-12-08T10:47:57.935Z,1021.74
2016-12-08T10:48:38.429Z,1021.82
2016-12-08T10:49:18.929Z,1021.64
2016-12-08T10:49:59.446Z,1021.64
2016-12-08T10:50:39.941Z,1021.68
2016-12-08T10:51:20.521Z,1021.56
2016-12-08T10:52:00.991Z,1021.63
2016-12-08T10:52:41.485Z,1021.65
2016-12-08T10:53:28.830Z,1021.62
2016-12-08T10:54:17.124Z,1021.65
2016-12-08T10:55:04.765Z,1021.65
2016-12-08T10:55:56.340Z,1021.58
2016-12-08T10:56:43.059Z,1021.57
2016-12-08T10:57:23.551Z,1021.47
2016-12-08T10:58:07.190Z,1021.43
2016-12-08T10:58:48.550Z,1021.46
2016-12-08T10:59:29.037Z,1021.47
2016-12-08T11:00:09.527Z,1021.43
2016-12-08T11:01:57.079Z,1021.39
2016-12-08T11:02:40.891Z,1021.34
2016-12-08T11:05:09.094Z,1021.38
2016-12-08T11:05:56.999Z,1021.48
2016-12-08T11:06:42.788Z,1021.45
2016-12-08T11:07:29.832Z,1021.57
2016-12-08T11:08:10.103Z,1021.51
2016-12-08T11:08:51.079Z,1021.6
2016-12-08T11:09:32.574Z,1021.65
2016-12-08T11:10:13.188Z,1021.53
2016-12-08T11:10:53.756Z,1021.65
2016-12-08T11:11:34.186Z,1021.57
2016-12-08T11:12:15.176Z,1021.53
2016-12-08T11:12:55.706Z,1021.58
2016-12-08T11:13:36.199Z,1021.59
2016-12-08T11:14:16.687Z,1021.52
2016-12-08T11:14:57.862Z,1021.57
2016-12-08T11:15:38.379Z,1021.55
2016-12-08T11:16:18.952Z,1021.65
2016-12-08T11:16:59.550Z,1021.51
2016-12-08T11:17:40.649Z,1021.83
2016-12-08T11:18:21.983Z,1021.65
2016-12-08T11:19:02.519Z,1021.58
2016-12-08T11:19:43.115Z,1021.63
2016-12-08T11:20:23.605Z,1021.62
2016-12-08T11:21:04.141Z,1021.57
2016-12-08T11:21:44.631Z,1021.58
2016-12-08T11:22:25.116Z,1021.75
2016-12-08T11:23:05.612Z,1021.75
2016-12-08T11:23:46.110Z,1021.79
2016-12-08T11:24:26.585Z,1021.68
2016-12-08T11:25:07.066Z,1021.68
2016-12-08T11:25:47.558Z,1021.66
2016-12-08T11:26:28.030Z,1021.59
2016-12-08T11:27:08.535Z,1021.72
2016-12-08T11:27:49.019Z,1021.73
2016-12-08T11:28:29.471Z,1021.66
2016-12-08T11:29:09.989Z,1021.73
2016-12-08T11:29:50.482Z,1021.71
2016-12-08T11:30:30.967Z,1021.69
2016-12-08T11:31:11.551Z,1021.77
2016-12-08T11:31:52.074Z,1021.71
2016-12-08T11:32:38.777Z,1021.68
2016-12-08T11:33:28.843Z,1021.69
2016-12-08T11:34:18.853Z,1021.77
2016-12-08T11:35:10.496Z,1021.54
2016-12-08T11:36:00.295Z,1021.6
2016-12-08T11:36:49.492Z,1021.52
2016-12-08T11:37:40.131Z,1021.58
2016-12-08T11:38:31.814Z,1021.6
2016-12-08T11:39:21.549Z,1021.55
2016-12-08T11:40:11.577Z,1021.47
2016-12-08T11:40:53.968Z,1021.67
2016-12-08T11:41:39.594Z,1021.7
2016-12-08T11:42:20.426Z,1021.6
2016-12-08T11:43:01.447Z,1021.54
2016-12-08T11:43:43.373Z,1021.59
2016-12-08T11:44:28.374Z,1021.42
2016-12-08T11:45:09.905Z,1021.51
2016-12-08T11:45:50.630Z,1021.57
2016-12-08T11:46:31.295Z,1021.5
2016-12-08T11:47:15.091Z,1021.47
2016-12-08T11:47:56.544Z,1021.61
2016-12-08T11:48:37.138Z,1021.63
2016-12-08T11:49:17.671Z,1021.49
2016-12-08T11:49:58.149Z,1021.4
2016-12-08T11:50:38.666Z,1021.47
2016-12-08T11:51:19.221Z,1021.45
2016-12-08T11:51:59.703Z,1021.55
2016-12-08T11:52:40.201Z,1021.52
2016-12-08T11:53:20.707Z,1021.51
2016-12-08T11:54:01.202Z,1021.56
2016-12-08T11:54:41.691Z,1021.54
2016-12-08T11:55:22.182Z,1021.59
2016-12-08T11:56:02.672Z,1021.55
2016-12-08T11:56:43.154Z,1021.51
2016-12-08T11:57:23.640Z,1021.61
2016-12-08T11:58:04.131Z,1021.57
2016-12-08T11:58:44.645Z,1021.48
2016-12-08T11:59:25.123Z,1021.67
2016-12-08T12:00:05.634Z,1021.47
2016-12-08T12:00:46.120Z,1021.56
2016-12-08T12:01:26.633Z,1021.56
2016-12-08T12:02:07.108Z,1021.63
2016-12-08T12:02:47.592Z,1021.68
2016-12-08T12:03:28.102Z,1021.56
2016-12-08T12:04:08.667Z,1021.54
2016-12-08T12:04:49.285Z,1021.44
2016-12-08T12:05:29.785Z,1021.52
2016-12-08T12:06:10.265Z,1021.4
2016-12-08T12:06:52.275Z,1021.43
2016-12-08T12:07:36.849Z,1021.38
2016-12-08T12:08:20.935Z,1021.38
2016-12-08T12:09:01.393Z,1021.37
2016-12-08T12:09:41.908Z,1021.39
2016-12-08T12:10:22.385Z,1021.43
2016-12-08T12:11:02.867Z,1021.32
2016-12-08T12:11:43.364Z,1021.32
2016-12-08T12:12:23.845Z,1021.25
2016-12-08T12:13:04.349Z,1021.31
2016-12-08T12:13:44.835Z,1021.24
2016-12-08T12:14:25.353Z,1021.24
2016-12-08T12:15:05.803Z,1021.17
2016-12-08T12:15:46.305Z,1021.28
2016-12-08T12:16:26.834Z,1021.19
2016-12-08T12:17:07.431Z,1021.22
2016-12-08T12:17:47.968Z,1021.31
2016-12-08T12:18:28.467Z,1021.28
2016-12-08T12:19:08.983Z,1021.37
2016-12-08T12:19:49.506Z,1021.36
2016-12-08T12:20:30.037Z,1021.36
2016-12-08T12:21:10.530Z,1021.34
2016-12-08T12:21:51.031Z,1021.4
2016-12-08T12:22:31.528Z,1021.41
2016-12-08T12:23:12.043Z,1021.39
2016-12-08T12:23:52.617Z,1021.37
2016-12-08T12:24:33.126Z,1021.43
2016-12-08T12:25:13.650Z,1021.31
2016-12-08T12:25:54.163Z,1021.39
2016-12-08T12:26:34.668Z,1021.36
2016-12-08T12:27:15.511Z,1021.43
2016-12-08T12:27:56.001Z,1021.32
2016-12-08T12:28:36.496Z,1021.39
2016-12-08T12:29:17.017Z,1021.23
2016-12-08T12:29:57.541Z,1021.3
2016-12-08T12:30:38.052Z,1021.21
2016-12-08T12:31:18.548Z,1021.36
2016-12-08T12:31:59.038Z,1021.24
2016-12-08T12:32:39.619Z,1021.26
2016-12-08T12:33:20.114Z,1021.26
2016-12-08T12:34:00.645Z,1021.28
2016-12-08T12:34:41.115Z,1021.27
2016-12-08T12:35:21.602Z,1021.32
2016-12-08T12:36:02.095Z,1021.36
2016-12-08T12:36:42.579Z,1021.39
2016-12-08T12:37:23.096Z,1021.28
2016-12-08T12:38:03.605Z,1021.3
2016-12-08T12:38:44.064Z,1021.31
2016-12-08T12:39:24.563Z,1021.36
2016-12-08T12:40:05.027Z,1021.35
2016-12-08T12:40:45.578Z,1021.4
2016-12-08T12:42:44.710Z,1021.32
2016-12-08T12:43:25.364Z,1021.2
2016-12-08T12:44:05.741Z,1021.25
2016-12-08T12:44:46.241Z,1021.31
2016-12-08T12:45:26.735Z,1021.3
2016-12-08T12:46:07.239Z,1021.33
2016-12-08T12:46:47.755Z,1021.29
2016-12-08T12:47:28.280Z,1021.32
2016-12-08T12:48:08.740Z,1021.29
2016-12-08T12:48:49.257Z,1021.39
2016-12-08T12:49:29.755Z,1021.28
2016-12-08T12:50:10.262Z,1021.36
2016-12-08T12:50:50.738Z,1021.41
2016-12-08T12:51:31.210Z,1021.25
2016-12-08T12:52:11.727Z,1021.32
2016-12-08T12:52:52.248Z,1021.21
2016-12-08T12:53:32.730Z,1021.29
2016-12-08T12:54:13.249Z,1021.32
2016-12-08T12:54:53.855Z,1021.24
2016-12-08T12:55:34.312Z,1021.12
2016-12-08T12:56:14.846Z,1021.16
2016-12-08T12:56:55.314Z,1021.16
2016-12-08T12:57:35.808Z,1021.24
2016-12-08T12:58:16.303Z,1021.23
2016-12-08T12:58:56.816Z,1021.06
2016-12-08T12:59:37.285Z,1021.21
2016-12-08T13:00:17.749Z,1021.11
2016-12-08T13:00:58.231Z,1021.07
2016-12-08T13:01:38.773Z,1021.03
2016-12-08T13:02:19.280Z,1021.16
2016-12-08T13:02:59.817Z,1021.02
2016-12-08T13:03:40.342Z,1021.14
2016-12-08T13:04:20.826Z,1021.17
2016-12-08T13:05:02.289Z,1021.16
2016-12-08T13:05:42.759Z,1021.15
2016-12-08T13:06:23.360Z,1021.2
2016-12-08T13:07:03.872Z,1021.21
2016-12-08T13:07:44.466Z,1021.24
2016-12-08T13:08:25.187Z,1021.25
2016-12-08T13:09:06.126Z,1021.26
2016-12-08T13:09:46.607Z,1021.3
2016-12-08T13:10:27.297Z,1021.37
2016-12-08T13:11:08.003Z,1021.35
2016-12-08T13:11:48.570Z,1021.43
2016-12-08T13:12:29.028Z,1021.3
2016-12-08T13:13:09.593Z,1021.34
2016-12-08T13:13:50.080Z,1021.27
2016-12-08T13:14:30.545Z,1021.37
2016-12-08T13:15:11.058Z,1021.28
2016-12-08T13:15:51.584Z,1021.36
2016-12-08T13:16:32.148Z,1021.22
2016-12-08T13:17:12.709Z,1021.27
2016-12-08T13:17:53.255Z,1021.18
2016-12-08T13:18:33.722Z,1021.26
2016-12-08T13:19:14.223Z,1021.26
2016-12-08T13:19:54.698Z,1021.23
2016-12-08T13:20:35.187Z,1021.33
2016-12-08T13:21:15.642Z,1021.19
2016-12-08T13:21:56.140Z,1021.3
2016-12-08T13:22:36.646Z,1021.2
2016-12-08T13:23:17.158Z,1021.45
2016-12-08T13:23:57.587Z,1021.25
2016-12-08T13:24:38.081Z,1021.22
2016-12-08T13:25:18.520Z,1021.16
2016-12-08T13:25:59.268Z,1021.19
2016-12-08T13:26:39.857Z,1021.1
2016-12-08T13:27:20.343Z,1021.11
2016-12-08T13:28:00.824Z,1021.15
2016-12-08T13:28:41.304Z,1021.23
2016-12-08T13:29:21.814Z,1021.21
2016-12-08T13:30:02.293Z,1021.28
2016-12-08T13:30:42.726Z,1021.16
2016-12-08T13:31:23.340Z,1021.08
2016-12-08T13:32:03.771Z,1021.25
2016-12-08T13:32:44.322Z,1021.08
2016-12-08T13:33:24.773Z,1021.08
2016-12-08T13:34:05.261Z,1021.25
2016-12-08T13:34:46.907Z,1021.15
2016-12-08T13:35:27.382Z,1021.06
2016-12-08T13:36:07.863Z,1021.21
2016-12-08T13:36:48.377Z,1021.32
2016-12-08T13:37:28.908Z,1021.16
2016-12-08T13:38:09.368Z,1021.19
2016-12-08T13:38:49.847Z,1021.13
2016-12-08T13:39:30.301Z,1021.09
2016-12-08T13:40:10.780Z,1021.15
2016-12-08T13:40:51.261Z,1021.08
2016-12-08T13:41:31.732Z,1021.16
2016-12-08T13:42:12.196Z,1021.16
2016-12-08T13:42:52.678Z,1021.14
2016-12-08T13:43:33.121Z,1021.31
2016-12-08T13:44:13.636Z,1021.14
2016-12-08T13:44:54.136Z,1021.2
2016-12-08T13:45:34.608Z,1021.23
2016-12-08T13:46:15.091Z,1021.19
2016-12-08T13:46:55.567Z,1021.09
2016-12-08T13:47:36.123Z,1021.2
2016-12-08T13:48:16.600Z,1021.18
2016-12-08T13:48:57.084Z,1021.09
2016-12-08T13:49:37.610Z,1021.09
2016-12-08T13:50:18.545Z,1021.09
2016-12-08T13:50:59.031Z,1021.13
2016-12-08T13:51:39.537Z,1021.08
2016-12-08T13:52:20.038Z,1021.17
2016-12-08T13:53:02.032Z,1021.13
2016-12-08T13:53:42.521Z,1021.1
2016-12-08T13:54:22.986Z,1021.13
2016-12-08T13:55:03.475Z,1021.18
2016-12-08T13:55:43.993Z,1021.02
2016-12-08T13:56:24.501Z,1021.08
2016-12-08T13:57:05.007Z,1021.05
2016-12-08T13:57:45.462Z,1021.09
2016-12-08T13:58:25.909Z,1020.98
2016-12-08T13:59:06.378Z,1021.06
2016-12-08T13:59:46.858Z,1021.04
2016-12-08T14:00:27.342Z,1021.05
2016-12-08T14:01:07.802Z,1021.01
2016-12-08T14:01:48.337Z,1021.06
2016-12-08T14:02:28.988Z,1021
2016-12-08T14:03:12.652Z,1021.07
2016-12-08T14:03:54.344Z,1021.06
2016-12-08T14:04:34.798Z,1021.09
2016-12-08T14:05:15.302Z,1021.12
2016-12-08T14:05:55.766Z,1021.13
2016-12-08T14:06:36.429Z,1021.11
2016-12-08T14:07:16.835Z,1021.12
2016-12-08T14:07:57.332Z,1021.15
2016-12-08T14:08:37.826Z,1021.12
2016-12-08T14:09:18.296Z,1021.2
2016-12-08T14:09:58.885Z,1021.18
2016-12-08T14:10:39.406Z,1021.17
2016-12-08T14:11:19.898Z,1021.25
2016-12-08T14:12:00.414Z,1021.19
2016-12-08T14:12:40.839Z,1021.2
2016-12-08T14:13:21.332Z,1021.05
2016-12-08T14:14:01.787Z,1021.11
2016-12-08T14:14:42.302Z,1021.11
2016-12-08T14:15:22.741Z,1021.09
2016-12-08T14:16:03.214Z,1021.13
2016-12-08T14:16:43.714Z,1021.17
2016-12-08T14:17:24.284Z,1021.17
2016-12-08T14:18:04.685Z,1021.22
2016-12-08T14:18:45.149Z,1021.28
2016-12-08T14:19:25.667Z,1021.3
2016-12-08T14:20:06.136Z,1021.2
2016-12-08T14:20:46.636Z,1021.3
2016-12-08T14:21:27.130Z,1021.19
2016-12-08T14:22:07.573Z,1021.26
2016-12-08T14:22:48.045Z,1021.34
2016-12-08T14:23:28.566Z,1021.25
2016-12-08T14:24:09.007Z,1021.32
2016-12-08T14:24:49.537Z,1021.25
2016-12-08T14:25:30.030Z,1021.31
2016-12-08T14:26:10.528Z,1021.27
2016-12-08T14:26:51.028Z,1021.27
2016-12-08T14:27:31.533Z,1021.3
2016-12-08T14:28:12.029Z,1021.31
2016-12-08T14:28:52.516Z,1021.41
2016-12-08T14:29:32.998Z,1021.33
2016-12-08T14:30:13.490Z,1021.37
2016-12-08T14:30:53.944Z,1021.39
2016-12-08T14:31:34.524Z,1021.44
2016-12-08T14:32:15.009Z,1021.3
2016-12-08T14:32:55.515Z,1021.38
2016-12-08T14:33:39.579Z,1021.24
2016-12-08T14:34:27.435Z,1021.37
2016-12-08T14:35:18.146Z,1021.31
2016-12-08T14:36:08.436Z,1021.35
2016-12-08T14:36:55.604Z,1021.32
2016-12-08T14:37:42.584Z,1021.23
2016-12-08T14:38:27.106Z,1021.29
2016-12-08T14:39:13.863Z,1021.2
2016-12-08T14:40:01.917Z,1021.29
2016-12-08T14:40:45.539Z,1021.18
2016-12-08T14:41:26.070Z,1021.16
2016-12-08T14:42:06.541Z,1021.26
2016-12-08T14:42:47.003Z,1021.11
2016-12-08T14:43:27.489Z,1021.12
2016-12-08T14:44:07.982Z,1021.1
2016-12-08T14:44:48.486Z,1021.02
2016-12-08T14:45:28.989Z,1021
2016-12-08T14:46:09.586Z,1020.99
2016-12-08T14:46:49.983Z,1021.04
2016-12-08T14:47:30.480Z,1021.04
2016-12-08T14:48:11.057Z,1021.02
2016-12-08T14:48:51.557Z,1020.95
2016-12-08T14:49:32.013Z,1020.9
2016-12-08T14:50:12.520Z,1020.92
2016-12-08T14:50:53.028Z,1020.89
2016-12-08T14:51:33.538Z,1020.89
2016-12-08T14:52:14.030Z,1020.86
2016-12-08T14:52:54.578Z,1020.86
2016-12-08T14:53:35.097Z,1020.81
2016-12-08T14:54:15.621Z,1020.83
2016-12-08T14:54:56.154Z,1020.74
2016-12-08T14:55:36.662Z,1020.7
2016-12-08T14:56:17.210Z,1020.61
2016-12-08T14:56:57.689Z,1020.62
2016-12-08T14:57:38.187Z,1020.62
2016-12-08T14:58:18.710Z,1020.66
2016-12-08T14:58:59.176Z,1020.66
2016-12-08T14:59:39.679Z,1020.65
2016-12-08T15:00:20.185Z,1020.75
2016-12-08T15:01:00.703Z,1020.72
2016-12-08T15:01:41.205Z,1020.74
2016-12-08T15:02:21.709Z,1020.75
2016-12-08T15:03:04.439Z,1020.73
2016-12-08T15:03:46.425Z,1020.71
2016-12-08T15:04:27.393Z,1020.71
2016-12-08T15:05:08.593Z,1020.68
2016-12-08T15:05:49.651Z,1020.67
2016-12-08T15:06:31.450Z,1020.62
2016-12-08T15:07:13.137Z,1020.65
2016-12-08T15:07:54.054Z,1020.56
2016-12-08T15:08:35.121Z,1020.57
2016-12-08T15:09:17.399Z,1020.7
2016-12-08T15:09:58.896Z,1020.66
2016-12-08T15:10:39.863Z,1020.65
2016-12-08T15:11:20.819Z,1020.61
2016-12-08T15:12:01.718Z,1020.61
2016-12-08T15:12:43.477Z,1020.61
2016-12-08T15:13:24.409Z,1020.53
2016-12-08T15:14:05.327Z,1020.72
2016-12-08T15:14:46.232Z,1020.61
2016-12-08T15:15:27.668Z,1020.5
2016-12-08T15:16:09.432Z,1020.46
2016-12-08T15:16:50.368Z,1020.41
2016-12-08T15:17:31.894Z,1020.46
2016-12-08T15:18:13.469Z,1020.44
2016-12-08T15:18:54.413Z,1020.47
2016-12-08T15:19:35.305Z,1020.56
2016-12-08T15:20:17.134Z,1020.49
2016-12-08T15:20:58.032Z,1020.42
2016-12-08T15:21:39.037Z,1020.38
2016-12-08T15:22:20.014Z,1020.45
2016-12-08T15:23:00.992Z,1020.28
2016-12-08T15:23:41.972Z,1020.31
2016-12-08T15:24:22.976Z,1020.31
2016-12-08T15:25:05.473Z,1020.4
2016-12-08T15:25:46.401Z,1020.34
2016-12-08T15:26:27.481Z,1020.43
2016-12-08T15:27:08.382Z,1020.34
2016-12-08T15:27:49.303Z,1020.54
2016-12-08T15:28:30.220Z,1020.46
2016-12-08T15:29:11.241Z,1020.38
2016-12-08T15:29:52.130Z,1020.39
2016-12-08T15:30:33.938Z,1020.36
2016-12-08T15:31:14.888Z,1020.45
2016-12-08T15:31:55.878Z,1020.53
2016-12-08T15:32:38.717Z,1020.43
2016-12-08T15:33:19.817Z,1020.46
2016-12-08T15:34:01.071Z,1020.55
2016-12-08T15:34:42.727Z,1020.52
2016-12-08T15:35:23.235Z,1020.57
2016-12-08T15:36:03.710Z,1020.58
2016-12-08T15:36:44.212Z,1020.61
2016-12-08T15:37:24.764Z,1020.54
2016-12-08T15:38:05.280Z,1020.58
2016-12-08T15:38:45.888Z,1020.67
2016-12-08T15:39:32.080Z,1020.61
2016-12-08T15:40:12.901Z,1020.78
2016-12-08T15:40:53.905Z,1020.84
2016-12-08T15:41:34.931Z,1020.8
2016-12-08T15:42:16.667Z,1020.83
2016-12-08T15:42:57.583Z,1020.83
2016-12-08T15:43:38.636Z,1020.89
2016-12-08T15:44:20.474Z,1020.93
2016-12-08T15:45:01.384Z,1020.91
2016-12-08T15:45:42.333Z,1020.83
2016-12-08T15:46:23.333Z,1020.86
2016-12-08T15:47:05.155Z,1020.84
2016-12-08T15:47:48.042Z,1020.79
2016-12-08T15:48:29.339Z,1020.81
2016-12-08T15:49:10.911Z,1020.81
2016-12-08T15:49:51.653Z,1020.81
2016-12-08T15:50:32.126Z,1020.82
2016-12-08T15:51:12.623Z,1020.83
2016-12-08T15:51:53.117Z,1020.78
2016-12-08T15:52:39.436Z,1020.76
2016-12-08T15:53:19.994Z,1020.86
2016-12-08T15:54:00.516Z,1020.7
2016-12-08T15:54:41.018Z,1020.77
2016-12-08T15:55:21.966Z,1020.68
2016-12-08T15:56:02.500Z,1020.65
2016-12-08T15:56:42.997Z,1020.69
2016-12-08T15:57:23.568Z,1020.84
2016-12-08T15:58:04.081Z,1020.63
2016-12-08T15:58:44.644Z,1020.53
2016-12-08T15:59:25.099Z,1020.62
2016-12-08T16:00:05.635Z,1020.55
2016-12-08T16:00:46.188Z,1020.5
2016-12-08T16:01:26.674Z,1020.35
2016-12-08T16:02:07.133Z,1020.41
2016-12-08T16:02:47.614Z,1020.39
2016-12-08T16:03:28.150Z,1020.41
2016-12-08T16:04:08.629Z,1020.39
2016-12-08T16:04:49.097Z,1020.42
2016-12-08T16:05:29.627Z,1020.45
2016-12-08T16:06:10.158Z,1020.39
2016-12-08T16:06:50.615Z,1020.59
2016-12-08T16:07:31.095Z,1020.55
2016-12-08T16:08:11.598Z,1020.56
2016-12-08T16:08:52.144Z,1020.51
2016-12-08T16:09:32.623Z,1020.53
2016-12-08T16:10:13.143Z,1020.54
2016-12-08T16:10:53.589Z,1020.71
2016-12-08T16:11:34.053Z,1020.62
2016-12-08T16:12:14.527Z,1020.64
2016-12-08T16:12:55.044Z,1020.82
2016-12-08T16:13:35.525Z,1020.87
2016-12-08T16:14:16.008Z,1020.73
2016-12-08T16:14:56.546Z,1020.53
2016-12-08T16:15:37.040Z,1020.68
2016-12-08T16:16:17.521Z,1020.86
2016-12-08T16:16:57.974Z,1020.6
2016-12-08T16:17:38.488Z,1020.57
2016-12-08T16:18:19.001Z,1020.73
2016-12-08T16:18:59.439Z,1020.63
2016-12-08T16:19:39.945Z,1020.62
2016-12-08T16:20:20.440Z,1020.64
2016-12-08T16:21:00.897Z,1020.68
2016-12-08T16:21:41.409Z,1020.66
2016-12-08T16:22:21.851Z,1020.66
2016-12-08T16:23:02.353Z,1020.64
2016-12-08T16:23:42.850Z,1020.72
2016-12-08T16:24:23.320Z,1020.59
2016-12-08T16:25:03.793Z,1020.66
2016-12-08T16:25:45.135Z,1020.72
2016-12-08T16:26:25.653Z,1020.75
2016-12-08T16:27:06.122Z,1020.75
2016-12-08T16:27:46.619Z,1020.73
2016-12-08T16:28:27.080Z,1020.84
2016-12-08T16:29:07.538Z,1020.78
2016-12-08T16:29:48.017Z,1020.82
2016-12-08T16:30:28.531Z,1020.79
2016-12-08T16:31:09.009Z,1020.75
2016-12-08T16:31:49.521Z,1020.81
2016-12-08T16:32:30.022Z,1020.77
2016-12-08T16:33:10.519Z,1020.79
2016-12-08T16:33:50.996Z,1020.76
2016-12-08T16:34:31.449Z,1020.71
2016-12-08T16:35:12.037Z,1020.71
2016-12-08T16:35:52.583Z,1020.69
2016-12-08T16:36:33.063Z,1020.72
2016-12-08T16:37:13.534Z,1020.67
2016-12-08T16:37:54.088Z,1020.67
2016-12-08T16:38:34.629Z,1020.66
2016-12-08T16:39:15.296Z,1020.65
2016-12-08T16:39:56.055Z,1020.66
2016-12-08T16:40:36.801Z,1020.67
2016-12-08T16:41:17.487Z,1020.72
2016-12-08T16:41:58.254Z,1020.71
2016-12-08T16:42:38.978Z,1020.69
2016-12-08T16:43:19.879Z,1020.73
2016-12-08T16:44:00.622Z,1020.78
2016-12-08T16:44:41.447Z,1020.76
2016-12-08T16:45:22.192Z,1020.81
2016-12-08T16:46:02.872Z,1020.81
2016-12-08T16:46:43.633Z,1020.81
2016-12-08T16:47:24.537Z,1020.75
2016-12-08T16:48:05.517Z,1020.74
2016-12-08T16:48:46.192Z,1020.76
2016-12-08T16:49:26.744Z,1020.71
2016-12-08T16:50:07.194Z,1020.75
2016-12-08T16:50:47.720Z,1020.68
2016-12-08T16:51:28.216Z,1020.67
2016-12-08T16:52:08.742Z,1020.68
2016-12-08T16:52:49.215Z,1020.62
2016-12-08T16:53:29.725Z,1020.6
2016-12-08T16:54:10.204Z,1020.67
2016-12-08T16:54:50.677Z,1020.61
2016-12-08T16:55:31.106Z,1020.53
2016-12-08T16:56:11.634Z,1020.56
2016-12-08T16:56:52.126Z,1020.51
2016-12-08T16:57:32.544Z,1020.51
2016-12-08T16:58:13.046Z,1020.69
2016-12-08T16:58:53.521Z,1020.57
2016-12-08T16:59:34.057Z,1020.76
2016-12-08T17:00:14.552Z,1020.67
2016-12-08T17:00:55.007Z,1020.75
2016-12-08T17:01:35.568Z,1020.78
2016-12-08T17:02:16.066Z,1020.66
2016-12-08T17:02:56.536Z,1020.71
2016-12-08T17:03:37.171Z,1020.71
2016-12-08T17:04:17.601Z,1020.67
2016-12-08T17:04:58.123Z,1020.72
2016-12-08T17:05:38.671Z,1020.7
2016-12-08T17:06:19.209Z,1020.59
2016-12-08T17:06:59.694Z,1020.56
2016-12-08T17:07:40.205Z,1020.57
2016-12-08T17:08:20.657Z,1020.6
2016-12-08T17:09:01.255Z,1020.55
2016-12-08T17:09:41.767Z,1020.66
2016-12-08T17:10:22.269Z,1020.58
2016-12-08T17:11:02.755Z,1020.56
2016-12-08T17:11:43.255Z,1020.53
2016-12-08T17:12:23.786Z,1020.58
2016-12-08T17:13:04.312Z,1020.5
2016-12-08T17:13:44.798Z,1020.61
2016-12-08T17:14:25.318Z,1020.56
2016-12-08T17:15:05.779Z,1020.61
2016-12-08T17:15:46.228Z,1020.53
2016-12-08T17:16:26.731Z,1020.59
2016-12-08T17:17:07.230Z,1020.59
2016-12-08T17:17:47.722Z,1020.64
2016-12-08T17:18:28.204Z,1020.61
2016-12-08T17:19:08.732Z,1020.58
2016-12-08T17:19:49.172Z,1020.59
2016-12-08T17:20:29.674Z,1020.5
2016-12-08T17:21:10.187Z,1020.69
2016-12-08T17:21:50.661Z,1020.57
2016-12-08T17:22:31.157Z,1020.55
2016-12-08T17:23:11.673Z,1020.63
2016-12-08T17:23:52.209Z,1020.6
2016-12-08T17:24:32.681Z,1020.55
2016-12-08T17:25:13.206Z,1020.66
2016-12-08T17:25:53.670Z,1020.6
2016-12-08T17:26:34.159Z,1020.53
2016-12-08T17:27:14.618Z,1020.51
2016-12-08T17:27:55.093Z,1020.59
2016-12-08T17:28:35.611Z,1020.54
2016-12-08T17:29:16.101Z,1020.64
2016-12-08T17:29:56.604Z,1020.55
2016-12-08T17:30:37.076Z,1020.57
2016-12-08T17:31:17.554Z,1020.5
2016-12-08T17:31:58.063Z,1020.66
2016-12-08T17:32:38.542Z,1020.64
2016-12-08T17:33:18.993Z,1020.63
2016-12-08T17:33:59.502Z,1020.64
2016-12-08T17:34:39.944Z,1020.66
2016-12-08T17:35:20.480Z,1020.64
2016-12-08T17:36:00.948Z,1020.58
2016-12-08T17:36:41.389Z,1020.61
2016-12-08T17:37:21.924Z,1020.63
2016-12-08T17:38:02.394Z,1020.68
2016-12-08T17:38:42.843Z,1020.64
2016-12-08T17:39:23.341Z,1020.61
2016-12-08T17:40:03.840Z,1020.61
2016-12-08T17:40:44.371Z,1020.68
2016-12-08T17:41:24.812Z,1020.67
2016-12-08T17:42:05.334Z,1020.59
2016-12-08T17:42:45.822Z,1020.57
2016-12-08T17:43:26.328Z,1020.62
2016-12-08T17:44:06.777Z,1020.71
2016-12-08T17:44:47.260Z,1020.63
2016-12-08T17:45:27.739Z,1020.61